Terminal Aerodrome Forecast
Issued by NWS

Home | Current Version | Previous Version | Text Only | Print | Product List | Glossary On
Versions: 1 2 3 4 5 6 7 8 9 10 11 12 13 14 15 16 17 18 19 20 21 22 23 24 25
000
FTUS43 KSGF 181000 AAA
TAFJLN
TAF AMD
KJLN 181055Z 1811/1906 16007KT P6SM -SHRA VCTS BKN035CB OVC050
      TEMPO 1815/1819 3SM TSRA BR OVC020CB
     FM182200 18009KT P6SM VCTS SCT020 OVC040CB
     FM190000 12006KT P6SM OVC050 PROB30 1900/1906 6SM -TSRA BR
      OVC035CB=

USA.gov is the U.S. government's official web portal to all federal, state and local government web resources and services.